createdAt,value
2022-09-13T00:02:03.298Z,9.11
2022-09-13T00:05:04.980Z,9.18
2022-09-13T00:08:06.882Z,9.36
2022-09-13T00:11:12.875Z,9.53
2022-09-13T00:14:14.358Z,9.62
2022-09-13T00:17:15.862Z,9.62
2022-09-13T00:20:17.478Z,9.77
2022-09-13T00:23:19.161Z,9.88
2022-09-13T00:26:21.618Z,9.99
2022-09-13T00:29:23.103Z,9.85
2022-09-13T00:32:24.597Z,9.73
2022-09-13T00:35:26.082Z,9.69
2022-09-13T00:38:27.586Z,9.53
2022-09-13T00:41:29.089Z,9.66
2022-09-13T00:44:48.819Z,9.75
2022-09-13T00:48:00.585Z,9.91
2022-09-13T00:51:02.358Z,9.86
2022-09-13T00:54:03.933Z,10.12
2022-09-13T00:57:05.554Z,10.09
2022-09-13T01:00:14.078Z,10.12
2022-09-13T01:03:15.803Z,10.06
2022-09-13T01:06:24.043Z,10.16
2022-09-13T01:09:25.583Z,10.18
2022-09-13T01:12:32.818Z,10.13
2022-09-13T01:15:34.389Z,10.00
2022-09-13T01:18:35.921Z,9.89
2022-09-13T01:21:49.697Z,9.82
2022-09-13T01:24:57.195Z,9.87
2022-09-13T01:28:17.540Z,9.84
2022-09-13T01:31:37.642Z,9.68
2022-09-13T01:34:49.572Z,9.56
2022-09-13T01:38:11.244Z,9.54
2022-09-13T01:41:12.720Z,9.38
2022-09-13T01:44:14.297Z,9.25
2022-09-13T01:47:15.969Z,9.39
2022-09-13T01:50:17.524Z,9.33
2022-09-13T01:53:22.531Z,9.50
2022-09-13T01:56:28.755Z,9.49
2022-09-13T01:59:43.550Z,9.49
2022-09-13T02:02:45.077Z,9.75
2022-09-13T02:05:56.949Z,9.91
2022-09-13T02:09:00.958Z,10.03
2022-09-13T02:12:10.916Z,10.06
2022-09-13T02:15:14.924Z,10.07
2022-09-13T02:18:18.270Z,10.07
2022-09-13T02:21:24.289Z,10.05
2022-09-13T02:24:36.807Z,10.00
2022-09-13T02:27:38.300Z,9.85
2022-09-13T02:30:40.874Z,9.73
2022-09-13T02:33:44.290Z,9.61
2022-09-13T02:36:45.905Z,9.57
2022-09-13T02:39:48.241Z,9.65
2022-09-13T02:43:00.536Z,9.62
2022-09-13T02:46:11.198Z,9.48
2022-09-13T02:49:27.005Z,9.50
2022-09-13T02:52:28.605Z,9.43
2022-09-13T02:55:33.658Z,9.35
2022-09-13T02:58:41.910Z,9.31
2022-09-13T03:02:03.748Z,9.14
2022-09-13T03:05:05.570Z,8.98
2022-09-13T03:08:07.705Z,9.00
2022-09-13T03:11:12.134Z,8.99
2022-09-13T03:14:32.393Z,8.91
2022-09-13T03:17:54.685Z,8.92
2022-09-13T03:21:28.514Z,8.87
2022-09-13T03:24:41.985Z,8.95
2022-09-13T03:27:46.276Z,9.01
2022-09-13T03:30:50.566Z,8.98
2022-09-13T03:34:18.445Z,8.93
2022-09-13T03:37:24.647Z,8.91
2022-09-13T03:40:28.729Z,8.93
2022-09-13T03:43:37.249Z,9.00
2022-09-13T03:46:39.917Z,8.97
2022-09-13T03:49:41.476Z,8.88
2022-09-13T03:52:46.400Z,8.82
2022-09-13T03:55:48.175Z,8.75
2022-09-13T03:58:50.196Z,8.65
2022-09-13T04:01:52.399Z,8.55
2022-09-13T04:04:53.978Z,8.53
2022-09-13T04:07:55.553Z,8.57
2022-09-13T04:10:57.142Z,8.60
2022-09-13T04:13:59.492Z,8.67
2022-09-13T04:17:01.079Z,8.63
2022-09-13T04:20:02.895Z,8.57
2022-09-13T04:23:04.918Z,8.69
2022-09-13T04:26:06.657Z,8.77
2022-09-13T04:29:08.246Z,8.92
2022-09-13T04:32:12.006Z,8.95
2022-09-13T04:35:13.528Z,8.93
2022-09-13T04:38:15.086Z,8.90
2022-09-13T04:41:17.574Z,8.92
2022-09-13T04:44:20.576Z,8.89
2022-09-13T04:47:22.643Z,8.76
2022-09-13T04:50:24.516Z,8.74
2022-09-13T04:53:26.200Z,8.78
2022-09-13T04:56:27.794Z,8.87
2022-09-13T04:59:29.349Z,9.00
2022-09-13T05:02:30.991Z,8.98
2022-09-13T05:05:32.652Z,8.92
2022-09-13T05:08:34.514Z,8.85
2022-09-13T05:11:36.063Z,8.83
2022-09-13T05:14:37.646Z,-144.28
2022-09-13T05:17:39.147Z,-144.28
2022-09-13T05:20:40.739Z,-144.28
2022-09-13T05:23:42.314Z,-144.28
2022-09-13T05:26:43.890Z,-144.28
2022-09-13T05:29:45.506Z,-144.28
2022-09-13T05:32:47.050Z,8.98
2022-09-13T05:35:48.562Z,8.92
2022-09-13T05:38:58.166Z,8.92
2022-09-13T05:42:12.335Z,8.97
2022-09-13T05:45:14.831Z,8.99
2022-09-13T05:48:16.398Z,9.02
2022-09-13T05:51:19.118Z,8.85
2022-09-13T05:54:20.640Z,8.70
2022-09-13T05:57:22.190Z,8.72
2022-09-13T06:00:24.025Z,8.71
2022-09-13T06:03:28.003Z,8.57
2022-09-13T06:06:29.522Z,8.67
2022-09-13T06:09:31.114Z,8.77
2022-09-13T06:12:32.606Z,8.78
2022-09-13T06:15:34.165Z,8.89
2022-09-13T06:18:36.081Z,8.98
2022-09-13T06:21:37.687Z,9.04
2022-09-13T06:24:39.199Z,9.01
2022-09-13T06:27:40.899Z,8.98
2022-09-13T06:30:42.410Z,9.07
2022-09-13T06:33:43.998Z,9.11
2022-09-13T06:36:45.556Z,9.20
2022-09-13T06:39:47.252Z,9.21
2022-09-13T06:42:48.993Z,9.01
2022-09-13T06:45:50.762Z,8.91
2022-09-13T06:49:00.954Z,8.94
2022-09-13T06:52:02.607Z,9.05
2022-09-13T06:55:04.433Z,9.12
2022-09-13T06:58:11.009Z,9.20
2022-09-13T07:01:12.818Z,9.30
2022-09-13T07:04:15.606Z,9.40
2022-09-13T07:07:17.170Z,9.59
2022-09-13T07:10:18.791Z,9.77
2022-09-13T07:13:20.940Z,9.98
2022-09-13T07:16:23.606Z,10.21
2022-09-13T07:19:28.574Z,10.43
2022-09-13T07:22:30.241Z,10.80
2022-09-13T07:25:31.754Z,11.10
2022-09-13T07:28:35.506Z,11.26
2022-09-13T07:31:38.270Z,11.36
2022-09-13T07:34:39.830Z,11.44
2022-09-13T07:37:42.352Z,11.17
2022-09-13T07:40:44.767Z,10.98
2022-09-13T07:43:46.332Z,11.04
2022-09-13T07:46:48.054Z,11.17
2022-09-13T07:49:50.599Z,11.29
2022-09-13T07:52:52.165Z,11.36
2022-09-13T07:55:53.954Z,11.48
2022-09-13T07:58:55.689Z,11.59
2022-09-13T08:01:57.407Z,11.77
2022-09-13T08:04:59.423Z,12.03
2022-09-13T08:08:01.170Z,12.21
2022-09-13T08:11:03.765Z,12.37
2022-09-13T08:14:05.913Z,12.44
2022-09-13T08:17:07.506Z,12.52
2022-09-13T08:20:10.565Z,12.55
2022-09-13T08:23:12.565Z,12.72
2022-09-13T08:26:14.270Z,12.85
2022-09-13T08:29:15.887Z,12.94
2022-09-13T08:32:17.457Z,13.08
2022-09-13T08:35:19.090Z,13.07
2022-09-13T08:38:20.651Z,13.06
2022-09-13T08:41:22.204Z,13.10
2022-09-13T08:44:36.674Z,13.19
2022-09-13T08:47:47.193Z,13.31
2022-09-13T08:50:48.973Z,13.33
2022-09-13T08:53:50.549Z,13.28
2022-09-13T08:56:55.040Z,13.38
2022-09-13T08:59:59.639Z,13.57
2022-09-13T09:03:01.189Z,13.76
2022-09-13T09:06:02.714Z,13.91
2022-09-13T09:09:08.405Z,13.91
2022-09-13T09:12:17.854Z,13.91
2022-09-13T09:15:19.483Z,14.06
2022-09-13T09:18:23.646Z,14.31
2022-09-13T09:21:25.191Z,14.24
2022-09-13T09:24:26.734Z,14.26
2022-09-13T09:27:29.925Z,14.40
2022-09-13T09:30:38.227Z,14.37
2022-09-13T09:33:46.079Z,14.58
2022-09-13T09:37:00.659Z,14.76
2022-09-13T09:40:05.503Z,14.80
2022-09-13T09:43:12.361Z,15.05
2022-09-13T09:46:15.496Z,14.91
2022-09-13T09:49:40.343Z,15.12
2022-09-13T09:52:50.712Z,15.47
2022-09-13T09:56:12.732Z,15.77
2022-09-13T09:59:28.386Z,15.79
2022-09-13T10:02:30.509Z,16.07
2022-09-13T10:05:34.894Z,16.32
2022-09-13T10:08:37.481Z,16.48
2022-09-13T10:11:45.073Z,16.40
2022-09-13T10:14:46.557Z,16.64
2022-09-13T10:18:02.300Z,16.62
2022-09-13T10:21:06.738Z,16.62
2022-09-13T10:24:19.117Z,16.36
2022-09-13T10:27:40.020Z,16.45
2022-09-13T10:30:57.965Z,16.62
2022-09-13T10:34:00.398Z,16.50
2022-09-13T10:37:15.286Z,16.69
2022-09-13T10:40:23.055Z,16.91
2022-09-13T10:43:24.601Z,17.03
2022-09-13T10:46:26.683Z,17.28
2022-09-13T10:49:38.601Z,17.40
2022-09-13T10:52:44.633Z,17.41
2022-09-13T10:55:47.038Z,17.59
2022-09-13T10:58:48.694Z,17.38
2022-09-13T11:01:50.200Z,17.33
2022-09-13T11:04:57.658Z,17.33
2022-09-13T11:08:02.069Z,17.62
2022-09-13T11:11:21.866Z,17.59
2022-09-13T11:14:32.534Z,17.87
2022-09-13T11:17:34.150Z,18.58
2022-09-13T11:20:48.004Z,19.24
2022-09-13T11:23:49.685Z,19.07
2022-09-13T11:26:51.374Z,18.78
2022-09-13T11:30:04.027Z,19.00
2022-09-13T11:33:23.922Z,19.20
2022-09-13T11:36:44.102Z,19.80
2022-09-13T11:40:06.908Z,20.31
2022-09-13T11:43:14.562Z,20.03
2022-09-13T11:46:20.270Z,19.81
2022-09-13T11:49:25.452Z,20.31
2022-09-13T11:52:26.988Z,19.96
2022-09-13T11:55:54.671Z,20.01
2022-09-13T11:59:01.288Z,20.33
2022-09-13T12:02:04.500Z,20.43
2022-09-13T12:05:22.656Z,20.26
2022-09-13T12:08:29.996Z,19.61
2022-09-13T12:11:35.286Z,18.98
2022-09-13T12:14:39.971Z,20.03
2022-09-13T12:17:45.840Z,20.52
2022-09-13T12:20:48.526Z,20.75
2022-09-13T12:23:53.725Z,21.13
2022-09-13T12:27:06.152Z,21.13
2022-09-13T12:30:18.119Z,21.14
2022-09-13T12:33:20.026Z,20.92
2022-09-13T12:36:28.788Z,21.24
2022-09-13T12:39:42.658Z,22.07
2022-09-13T12:42:59.342Z,22.41
2022-09-13T12:46:00.905Z,22.08
2022-09-13T12:49:29.068Z,21.45
2022-09-13T12:52:32.469Z,21.89
2022-09-13T12:55:57.287Z,22.74
2022-09-13T12:59:18.592Z,22.23
2022-09-13T13:02:27.684Z,21.64
2022-09-13T13:05:31.089Z,21.92
2022-09-13T13:08:32.760Z,21.99
2022-09-13T13:11:45.314Z,22.50
2022-09-13T13:14:47.553Z,23.11
2022-09-13T13:17:52.775Z,22.78
2022-09-13T13:20:54.312Z,22.89
2022-09-13T13:24:14.389Z,22.93
2022-09-13T13:27:37.030Z,23.43
2022-09-13T13:30:40.343Z,23.41
2022-09-13T13:33:48.487Z,23.01
2022-09-13T13:36:53.670Z,22.72
2022-09-13T13:40:14.172Z,22.88
2022-09-13T13:43:26.410Z,22.74
2022-09-13T13:46:31.876Z,23.51
2022-09-13T13:49:34.518Z,23.38
2022-09-13T13:52:37.370Z,23.86
2022-09-13T13:55:42.002Z,24.50
2022-09-13T13:58:43.514Z,24.56
2022-09-13T14:01:46.289Z,24.55
2022-09-13T14:05:00.036Z,24.26
2022-09-13T14:08:14.698Z,24.48
2022-09-13T14:11:42.934Z,24.18
2022-09-13T14:15:00.556Z,24.06
2022-09-13T14:18:02.074Z,23.83
2022-09-13T14:21:05.130Z,23.57
2022-09-13T14:24:13.037Z,23.75
2022-09-13T14:27:18.675Z,24.39
2022-09-13T14:30:22.235Z,24.80
2022-09-13T14:33:31.440Z,24.29
2022-09-13T14:36:32.986Z,24.50
2022-09-13T14:39:34.610Z,24.94
2022-09-13T14:42:40.038Z,25.11
2022-09-13T14:45:41.558Z,25.28
2022-09-13T14:49:09.422Z,25.29
2022-09-13T14:52:31.258Z,25.28
2022-09-13T14:55:42.801Z,25.34
2022-09-13T14:58:45.888Z,25.05
2022-09-13T15:01:47.494Z,24.52
2022-09-13T15:04:51.678Z,24.30
2022-09-13T15:07:53.350Z,24.76
2022-09-13T15:10:56.835Z,25.61
2022-09-13T15:14:02.203Z,25.84
2022-09-13T15:17:06.838Z,25.46
2022-09-13T15:20:12.110Z,26.20
2022-09-13T15:23:15.070Z,26.39
2022-09-13T15:26:20.803Z,25.77
2022-09-13T15:29:22.383Z,25.72
2022-09-13T15:32:25.266Z,26.14
2022-09-13T15:35:27.126Z,25.52
2022-09-13T15:38:33.583Z,24.54
2022-09-13T15:41:38.046Z,23.30
2022-09-13T15:44:42.510Z,22.57
2022-09-13T15:47:51.397Z,22.22
2022-09-13T15:51:04.362Z,22.08
2022-09-13T15:54:09.245Z,22.96
2022-09-13T15:57:16.538Z,22.34
2022-09-13T16:00:22.438Z,21.66
2022-09-13T16:03:24.562Z,21.48
2022-09-13T16:06:26.981Z,21.14
2022-09-13T16:09:28.563Z,21.17
2022-09-13T16:12:30.125Z,22.33
2022-09-13T16:15:31.679Z,21.77
2022-09-13T16:18:33.332Z,21.28
2022-09-13T16:21:36.292Z,22.70
2022-09-13T16:24:38.136Z,23.81
2022-09-13T16:27:40.026Z,24.19
2022-09-13T16:30:41.586Z,24.86
2022-09-13T16:33:43.576Z,25.22
2022-09-13T16:36:45.154Z,25.35
2022-09-13T16:39:46.829Z,24.93
2022-09-13T16:42:48.432Z,24.78
2022-09-13T16:45:51.537Z,24.32
2022-09-13T16:48:54.735Z,24.27
2022-09-13T16:51:59.447Z,23.95
2022-09-13T16:55:01.414Z,22.14
2022-09-13T16:58:03.090Z,20.53
2022-09-13T17:01:05.717Z,19.81
2022-09-13T17:04:08.169Z,20.04
2022-09-13T17:07:09.925Z,20.50
2022-09-13T17:10:12.742Z,19.53
2022-09-13T17:13:14.380Z,19.30
2022-09-13T17:16:27.093Z,19.29
2022-09-13T17:19:36.818Z,20.23
2022-09-13T17:22:38.830Z,21.58
2022-09-13T17:25:41.242Z,21.51
2022-09-13T17:28:42.793Z,21.63
2022-09-13T17:31:44.424Z,21.73
2022-09-13T17:34:46.008Z,21.91
2022-09-13T17:37:47.585Z,21.73
2022-09-13T17:40:58.314Z,21.37
2022-09-13T17:43:59.833Z,21.02
2022-09-13T17:47:02.389Z,20.76
2022-09-13T17:50:03.993Z,20.89
2022-09-13T17:53:05.641Z,20.88
2022-09-13T17:56:07.677Z,20.57
2022-09-13T17:59:10.269Z,20.41
2022-09-13T18:02:12.133Z,20.08
2022-09-13T18:05:14.022Z,19.84
2022-09-13T18:08:15.625Z,19.53
2022-09-13T18:11:22.200Z,19.23
2022-09-13T18:14:26.553Z,18.84
2022-09-13T18:17:28.149Z,18.10
2022-09-13T18:20:29.663Z,17.35
2022-09-13T18:23:32.568Z,16.96
2022-09-13T18:26:34.718Z,16.63
2022-09-13T18:29:36.274Z,16.33
2022-09-13T18:32:37.782Z,16.19
2022-09-13T18:35:39.273Z,16.08
2022-09-13T18:38:41.727Z,16.08
2022-09-13T18:41:45.149Z,16.04
2022-09-13T18:44:46.661Z,15.90
2022-09-13T18:47:48.178Z,15.77
2022-09-13T18:50:49.809Z,15.80
2022-09-13T18:53:51.608Z,15.71
2022-09-13T18:56:53.547Z,15.71
2022-09-13T18:59:57.239Z,15.66
2022-09-13T19:03:11.840Z,15.53
2022-09-13T19:06:18.519Z,15.39
2022-09-13T19:09:20.998Z,15.29
2022-09-13T19:12:22.704Z,15.23
2022-09-13T19:15:24.223Z,15.13
2022-09-13T19:18:25.958Z,14.91
2022-09-13T19:21:29.610Z,14.69
2022-09-13T19:24:31.183Z,14.45
2022-09-13T19:27:32.786Z,14.22
2022-09-13T19:30:34.815Z,14.11
2022-09-13T19:33:36.875Z,13.99
2022-09-13T19:36:39.352Z,13.92
2022-09-13T19:39:40.999Z,13.89
2022-09-13T19:42:42.567Z,13.88
2022-09-13T19:45:44.149Z,13.91
2022-09-13T19:48:46.691Z,13.89
2022-09-13T19:51:51.940Z,13.72
2022-09-13T19:54:56.292Z,13.58
2022-09-13T19:57:58.046Z,13.51
2022-09-13T20:01:10.272Z,13.43
2022-09-13T20:04:13.152Z,13.45
2022-09-13T20:07:14.846Z,13.43
2022-09-13T20:10:16.455Z,13.41
2022-09-13T20:13:19.578Z,13.36
2022-09-13T20:16:25.029Z,13.15
2022-09-13T20:19:46.361Z,13.01
2022-09-13T20:22:48.671Z,12.96
2022-09-13T20:25:50.508Z,12.98
2022-09-13T20:29:00.101Z,12.90
2022-09-13T20:32:02.297Z,12.87
2022-09-13T20:35:05.242Z,12.83
2022-09-13T20:38:07.122Z,12.78
2022-09-13T20:41:10.609Z,12.62
2022-09-13T20:44:12.314Z,12.44
2022-09-13T20:47:13.839Z,12.31
2022-09-13T20:50:15.466Z,12.21
2022-09-13T20:53:17.036Z,12.08
2022-09-13T20:56:18.759Z,12.04
2022-09-13T20:59:21.266Z,11.98
2022-09-13T21:02:22.828Z,11.62
2022-09-13T21:05:24.410Z,11.49
2022-09-13T21:08:41.327Z,11.52
2022-09-13T21:11:43.986Z,11.51
2022-09-13T21:14:46.373Z,11.53
2022-09-13T21:17:47.934Z,11.52
2022-09-13T21:20:56.336Z,11.42
2022-09-13T21:23:58.582Z,11.35
2022-09-13T21:27:00.268Z,11.26
2022-09-13T21:30:02.153Z,11.18
2022-09-13T21:33:03.741Z,11.11
2022-09-13T21:36:05.629Z,11.07
2022-09-13T21:39:07.204Z,11.05
2022-09-13T21:42:09.028Z,11.01
2022-09-13T21:45:10.709Z,10.97
2022-09-13T21:48:14.189Z,10.99
2022-09-13T21:51:17.017Z,10.99
2022-09-13T21:54:19.130Z,10.97
2022-09-13T21:57:20.812Z,11.02
2022-09-13T22:00:23.320Z,11.04
2022-09-13T22:03:24.826Z,11.09
2022-09-13T22:06:30.198Z,11.05
2022-09-13T22:09:34.346Z,10.93
2022-09-13T22:12:36.053Z,10.87
2022-09-13T22:15:37.592Z,10.85
2022-09-13T22:18:39.354Z,10.82
2022-09-13T22:21:42.726Z,10.64
2022-09-13T22:24:46.144Z,10.49
2022-09-13T22:27:47.702Z,10.44
2022-09-13T22:30:49.386Z,10.54
2022-09-13T22:33:51.594Z,10.68
2022-09-13T22:36:54.435Z,10.68
2022-09-13T22:39:59.320Z,10.56
2022-09-13T22:43:00.910Z,10.49
2022-09-13T22:46:06.687Z,10.51
2022-09-13T22:49:09.093Z,10.54
2022-09-13T22:52:11.295Z,10.55
2022-09-13T22:55:12.847Z,10.69
2022-09-13T22:58:14.731Z,10.82
2022-09-13T23:01:17.328Z,10.82
2022-09-13T23:04:18.970Z,10.85
2022-09-13T23:07:20.526Z,10.84
2022-09-13T23:10:22.065Z,10.74
2022-09-13T23:13:23.724Z,10.61
2022-09-13T23:16:29.229Z,10.59
2022-09-13T23:19:30.838Z,10.59
2022-09-13T23:22:32.446Z,10.63
2022-09-13T23:25:34.119Z,10.60
2022-09-13T23:28:36.208Z,10.56
2022-09-13T23:31:40.757Z,10.52
2022-09-13T23:34:42.518Z,10.47
2022-09-13T23:37:47.973Z,10.43
2022-09-13T23:40:49.498Z,10.45
2022-09-13T23:43:51.177Z,10.38
2022-09-13T23:46:52.673Z,10.36
2022-09-13T23:49:54.231Z,10.51
2022-09-13T23:52:55.827Z,10.66
2022-09-13T23:55:57.399Z,10.56
2022-09-13T23:58:59.474Z,10.56
